createdAt,value
2022-10-09T00:01:32.001Z,79.76
2022-10-09T00:04:01.588Z,79.82
2022-10-09T00:06:31.977Z,79.71
2022-10-09T00:09:01.676Z,79.65
2022-10-09T00:11:32.088Z,79.56
2022-10-09T00:14:16.921Z,79.50
2022-10-09T00:17:02.543Z,79.58
2022-10-09T00:19:31.351Z,79.53
2022-10-09T00:22:00.099Z,79.62
2022-10-09T00:24:28.789Z,79.55
2022-10-09T00:26:57.989Z,79.27
2022-10-09T00:29:26.680Z,79.17
2022-10-09T00:31:55.315Z,79.35
2022-10-09T00:34:23.933Z,79.16
2022-10-09T00:36:52.563Z,79.01
2022-10-09T00:39:21.236Z,78.89
2022-10-09T00:41:49.892Z,78.92
2022-10-09T00:44:52.227Z,78.79
2022-10-09T00:47:26.265Z,78.66
2022-10-09T00:50:00.292Z,78.50
2022-10-09T00:52:29.852Z,78.32
2022-10-09T00:55:00.426Z,78.34
2022-10-09T00:57:31.192Z,78.45
2022-10-09T01:00:04.927Z,78.54
2022-10-09T01:07:07.105Z,78.93
2022-10-09T01:09:42.487Z,78.98
2022-10-09T01:12:20.108Z,79.13
2022-10-09T01:14:56.825Z,79.17
2022-10-09T01:17:33.343Z,79.21
2022-10-09T01:20:31.479Z,79.32
2022-10-09T01:23:36.989Z,79.46
2022-10-09T01:26:15.340Z,79.37
2022-10-09T01:28:47.451Z,79.48
2022-10-09T01:31:18.475Z,79.59
2022-10-09T01:33:48.369Z,79.64
2022-10-09T01:36:18.903Z,79.73
2022-10-09T01:38:48.509Z,79.76
2022-10-09T01:41:18.439Z,79.78
2022-10-09T01:43:47.054Z,79.84
2022-10-09T01:46:22.369Z,79.85
2022-10-09T01:49:06.342Z,79.99
2022-10-09T01:51:44.026Z,80.01
2022-10-09T01:54:14.836Z,80.06
2022-10-09T01:56:47.908Z,80.03
2022-10-09T01:59:18.721Z,80.05
2022-10-09T02:01:49.304Z,80.13
2022-10-09T02:04:19.929Z,80.24
2022-10-09T02:06:49.097Z,80.32
2022-10-09T02:09:18.837Z,80.30
2022-10-09T02:11:52.729Z,80.34
2022-10-09T02:14:24.332Z,80.36
2022-10-09T02:17:01.172Z,80.42
2022-10-09T02:19:36.605Z,80.49
2022-10-09T02:22:10.618Z,80.46
2022-10-09T02:24:41.048Z,80.49
2022-10-09T02:27:10.974Z,80.47
2022-10-09T02:29:41.681Z,80.61
2022-10-09T02:32:11.413Z,80.72
2022-10-09T02:34:40.395Z,80.79
2022-10-09T02:37:09.506Z,80.72
2022-10-09T02:39:38.171Z,80.87
2022-10-09T02:42:06.969Z,80.93
2022-10-09T02:44:35.783Z,81.05
2022-10-09T02:47:04.414Z,81.02
2022-10-09T02:49:33.296Z,81.07
2022-10-09T02:52:01.943Z,81.02
2022-10-09T02:54:30.649Z,81.08
2022-10-09T02:56:59.412Z,81.13
2022-10-09T02:59:28.407Z,81.14
2022-10-09T03:01:57.377Z,81.34
2022-10-09T03:04:26.118Z,81.43
2022-10-09T03:06:55.386Z,81.53
2022-10-09T03:09:24.325Z,81.60
2022-10-09T03:11:52.966Z,81.64
2022-10-09T03:14:21.579Z,81.66
2022-10-09T03:16:50.712Z,81.68
2022-10-09T03:19:19.454Z,81.74
2022-10-09T03:21:48.089Z,81.80
2022-10-09T03:24:16.744Z,81.90
2022-10-09T03:26:45.389Z,81.92
2022-10-09T03:29:14.008Z,81.88
2022-10-09T03:31:57.915Z,81.97
2022-10-09T03:34:26.617Z,82.02
2022-10-09T03:36:55.291Z,81.92
2022-10-09T03:39:24.481Z,81.95
2022-10-09T03:41:53.103Z,82.07
2022-10-09T03:44:21.780Z,82.04
2022-10-09T03:46:51.914Z,82.08
2022-10-09T03:49:20.530Z,82.12
2022-10-09T03:51:49.126Z,82.12
2022-10-09T03:54:17.972Z,82.13
2022-10-09T03:56:46.652Z,82.23
2022-10-09T03:59:15.442Z,82.24
2022-10-09T04:01:44.060Z,82.55
2022-10-09T04:04:12.709Z,82.52
2022-10-09T04:06:41.890Z,82.48
2022-10-09T04:09:10.548Z,82.39
2022-10-09T04:11:39.251Z,82.46
2022-10-09T04:14:08.241Z,82.39
2022-10-09T04:16:36.912Z,82.47
2022-10-09T04:19:05.528Z,82.56
2022-10-09T04:21:34.227Z,82.58
2022-10-09T04:24:03.226Z,82.55
2022-10-09T04:26:31.893Z,82.58
2022-10-09T04:29:00.631Z,82.65
2022-10-09T04:31:29.378Z,82.74
2022-10-09T04:33:58.106Z,82.86
2022-10-09T04:36:26.770Z,82.77
2022-10-09T04:38:55.490Z,82.85
2022-10-09T04:41:24.150Z,82.94
2022-10-09T04:43:56.143Z,82.86
2022-10-09T04:46:25.190Z,82.82
2022-10-09T04:48:54.197Z,82.85
2022-10-09T04:51:22.914Z,82.82
2022-10-09T04:53:51.598Z,82.85
2022-10-09T04:56:24.248Z,82.82
2022-10-09T04:58:53.357Z,82.82
2022-10-09T05:01:23.980Z,82.82
2022-10-09T05:03:53.457Z,82.68
2022-10-09T05:06:23.563Z,82.67
2022-10-09T05:08:53.087Z,82.68
2022-10-09T05:11:23.514Z,82.74
2022-10-09T05:13:54.277Z,82.53
2022-10-09T05:16:25.591Z,82.48
2022-10-09T05:18:56.573Z,82.54
2022-10-09T05:21:28.375Z,82.62
2022-10-09T05:23:57.070Z,82.59
2022-10-09T05:26:26.950Z,82.54
2022-10-09T05:28:56.228Z,82.38
2022-10-09T05:31:27.293Z,82.45
2022-10-09T05:33:59.120Z,82.52
2022-10-09T05:36:28.116Z,82.46
2022-10-09T05:39:00.758Z,82.30
2022-10-09T05:41:30.376Z,82.25
2022-10-09T05:44:02.556Z,82.28
2022-10-09T05:46:31.340Z,82.30
2022-10-09T05:49:04.658Z,82.18
2022-10-09T05:51:35.237Z,82.11
2022-10-09T05:54:05.574Z,82.12
2022-10-09T05:56:36.187Z,82.09
2022-10-09T05:59:06.580Z,82.19
2022-10-09T06:01:38.084Z,82.19
2022-10-09T06:04:10.500Z,82.01
2022-10-09T06:06:40.267Z,81.94
2022-10-09T06:09:11.171Z,81.81
2022-10-09T06:11:41.556Z,81.60
2022-10-09T06:14:12.658Z,81.67
2022-10-09T06:16:43.055Z,81.60
2022-10-09T06:19:13.404Z,81.59
2022-10-09T06:21:42.210Z,81.44
2022-10-09T06:24:20.036Z,81.37
2022-10-09T06:26:50.923Z,81.18
2022-10-09T06:29:19.582Z,81.19
2022-10-09T06:31:48.223Z,80.99
2022-10-09T06:34:17.012Z,80.86
2022-10-09T06:36:45.664Z,80.69
2022-10-09T06:39:14.674Z,80.36
2022-10-09T06:41:43.339Z,80.34
2022-10-09T06:44:47.412Z,80.21
2022-10-09T06:47:16.028Z,79.84
2022-10-09T06:49:44.816Z,79.54
2022-10-09T06:52:13.509Z,79.27
2022-10-09T06:54:42.116Z,79.33
2022-10-09T06:57:10.873Z,79.27
2022-10-09T06:59:39.606Z,79.29
2022-10-09T07:02:09.645Z,79.32
2022-10-09T07:04:38.633Z,79.13
2022-10-09T07:07:07.251Z,79.02
2022-10-09T07:09:36.625Z,78.78
2022-10-09T07:12:05.645Z,78.51
2022-10-09T07:14:34.539Z,78.12
2022-10-09T07:17:05.375Z,78.02
2022-10-09T07:19:34.428Z,77.97
2022-10-09T07:22:03.105Z,77.77
2022-10-09T07:24:31.804Z,77.52
2022-10-09T07:27:00.644Z,77.35
2022-10-09T07:29:29.666Z,77.31
2022-10-09T07:31:58.714Z,76.83
2022-10-09T07:34:27.478Z,76.86
2022-10-09T07:36:56.212Z,76.72
2022-10-09T07:39:25.162Z,76.75
2022-10-09T07:41:54.739Z,76.74
2022-10-09T07:44:23.643Z,76.64
2022-10-09T07:46:52.772Z,76.70
2022-10-09T07:49:21.870Z,76.79
2022-10-09T07:51:51.026Z,76.88
2022-10-09T07:54:19.741Z,76.74
2022-10-09T07:56:48.560Z,76.50
2022-10-09T07:59:17.693Z,75.97
2022-10-09T08:01:46.734Z,75.97
2022-10-09T08:04:16.155Z,75.85
2022-10-09T08:06:44.953Z,75.75
2022-10-09T08:09:13.949Z,75.75
2022-10-09T08:11:44.061Z,75.92
2022-10-09T08:14:19.012Z,76.00
2022-10-09T08:16:48.943Z,76.02
2022-10-09T08:19:17.857Z,75.87
2022-10-09T08:21:47.275Z,75.67
2022-10-09T08:24:16.396Z,75.73
2022-10-09T08:26:45.131Z,75.68
2022-10-09T08:29:15.931Z,75.30
2022-10-09T08:31:45.872Z,75.18
2022-10-09T08:34:14.903Z,75.08
2022-10-09T08:36:43.948Z,74.96
2022-10-09T08:39:13.733Z,74.77
2022-10-09T08:41:47.431Z,74.86
2022-10-09T08:44:20.832Z,74.82
2022-10-09T08:47:05.164Z,74.66
2022-10-09T08:49:42.491Z,74.54
2022-10-09T08:52:23.338Z,74.75
2022-10-09T08:54:55.926Z,74.57
2022-10-09T08:57:31.126Z,74.77
2022-10-09T09:00:00.246Z,74.76
2022-10-09T09:02:45.435Z,74.50
2022-10-09T09:05:30.430Z,74.36
2022-10-09T09:08:10.832Z,74.01
2022-10-09T09:10:43.483Z,73.58
2022-10-09T09:13:31.175Z,72.80
2022-10-09T09:16:09.442Z,72.52
2022-10-09T09:18:45.403Z,72.21
2022-10-09T09:21:31.913Z,71.92
2022-10-09T09:24:02.975Z,71.84
2022-10-09T09:26:31.859Z,71.85
2022-10-09T09:29:04.968Z,71.78
2022-10-09T09:31:37.944Z,71.73
2022-10-09T09:34:14.455Z,71.97
2022-10-09T09:36:49.891Z,71.87
2022-10-09T09:42:15.959Z,71.38
2022-10-09T09:44:51.023Z,71.07
2022-10-09T09:47:27.657Z,70.92
2022-10-09T09:49:58.758Z,70.65
2022-10-09T09:52:31.650Z,70.73
2022-10-09T09:55:00.641Z,70.83
2022-10-09T09:57:35.045Z,70.88
2022-10-09T10:00:21.232Z,70.66
2022-10-09T10:03:01.297Z,70.51
2022-10-09T10:05:36.553Z,70.15
2022-10-09T10:08:16.388Z,69.90
2022-10-09T10:10:50.503Z,69.95
2022-10-09T10:13:21.570Z,70.02
2022-10-09T10:15:57.644Z,69.98
2022-10-09T10:18:29.025Z,70.02
2022-10-09T10:21:02.931Z,69.99
2022-10-09T10:23:37.697Z,70.10
2022-10-09T10:26:15.153Z,70.36
2022-10-09T10:28:51.702Z,70.72
2022-10-09T10:31:50.199Z,70.65
2022-10-09T10:34:24.568Z,70.74
2022-10-09T10:37:02.637Z,70.40
2022-10-09T10:39:41.710Z,70.52
2022-10-09T10:42:14.095Z,70.62
2022-10-09T10:44:50.348Z,70.45
2022-10-09T10:47:25.718Z,70.20
2022-10-09T10:49:55.386Z,69.77
2022-10-09T10:52:40.324Z,69.10
2022-10-09T10:55:27.419Z,68.92
2022-10-09T10:58:03.140Z,68.70
2022-10-09T11:00:39.072Z,68.69
2022-10-09T11:03:20.825Z,68.60
2022-10-09T11:05:55.098Z,68.51
2022-10-09T11:08:40.297Z,68.82
2022-10-09T11:11:16.103Z,68.97
2022-10-09T11:13:55.983Z,69.13
2022-10-09T11:16:38.654Z,69.43
2022-10-09T11:19:20.080Z,69.64
2022-10-09T11:21:59.121Z,69.48
2022-10-09T11:24:54.427Z,69.47
2022-10-09T11:27:29.660Z,69.48
2022-10-09T11:30:01.652Z,69.52
2022-10-09T11:32:36.234Z,69.48
2022-10-09T11:35:14.539Z,69.56
2022-10-09T11:37:53.691Z,69.13
2022-10-09T11:40:26.522Z,69.18
2022-10-09T11:42:58.795Z,68.92
2022-10-09T11:45:35.929Z,68.71
2022-10-09T11:48:11.167Z,68.76
2022-10-09T11:50:48.643Z,69.10
2022-10-09T11:53:21.188Z,69.09
2022-10-09T11:56:00.803Z,68.99
2022-10-09T11:58:29.590Z,68.67
2022-10-09T12:01:11.655Z,68.46
2022-10-09T12:03:40.872Z,68.11
2022-10-09T12:06:12.765Z,67.68
2022-10-09T12:08:43.655Z,67.25
2022-10-09T12:11:15.495Z,67.16
2022-10-09T12:13:51.158Z,66.87
2022-10-09T12:16:42.143Z,66.71
2022-10-09T12:19:19.676Z,66.53
2022-10-09T12:21:52.607Z,66.48
2022-10-09T12:24:25.183Z,66.74
2022-10-09T12:26:56.324Z,66.53
2022-10-09T12:29:31.669Z,66.37
2022-10-09T12:32:06.521Z,66.13
2022-10-09T12:34:42.071Z,65.49
2022-10-09T12:37:13.693Z,65.16
2022-10-09T12:39:43.617Z,65.12
2022-10-09T12:42:20.061Z,65.03
2022-10-09T12:44:50.671Z,64.82
2022-10-09T12:47:23.822Z,64.73
2022-10-09T12:49:57.835Z,64.83
2022-10-09T12:52:26.810Z,64.85
2022-10-09T12:54:56.091Z,65.32
2022-10-09T12:57:27.690Z,65.75
2022-10-09T12:59:57.662Z,65.36
2022-10-09T13:02:26.518Z,65.44
2022-10-09T13:05:01.987Z,64.74
2022-10-09T13:07:32.190Z,64.17
2022-10-09T13:10:08.109Z,63.57
2022-10-09T13:12:37.484Z,63.31
2022-10-09T13:15:22.804Z,62.95
2022-10-09T13:17:51.921Z,62.45
2022-10-09T13:20:27.544Z,62.50
2022-10-09T13:22:59.580Z,62.54
2022-10-09T13:25:33.481Z,62.41
2022-10-09T13:28:03.072Z,62.33
2022-10-09T13:30:32.180Z,62.12
2022-10-09T13:33:01.995Z,61.93
2022-10-09T13:35:30.712Z,62.14
2022-10-09T13:37:59.409Z,62.43
2022-10-09T13:40:28.217Z,62.37
2022-10-09T13:43:02.346Z,62.15
2022-10-09T13:45:31.068Z,61.98
2022-10-09T13:48:01.363Z,62.09
2022-10-09T13:50:30.218Z,61.92
2022-10-09T13:52:59.617Z,61.76
2022-10-09T13:55:28.806Z,61.57
2022-10-09T13:57:57.456Z,61.29
2022-10-09T14:00:26.679Z,61.08
2022-10-09T14:02:55.416Z,60.99
2022-10-09T14:05:26.254Z,61.20
2022-10-09T14:07:55.382Z,60.96
2022-10-09T14:10:24.896Z,60.85
2022-10-09T14:12:56.037Z,60.79
2022-10-09T14:15:24.878Z,60.82
2022-10-09T14:17:53.535Z,61.09
2022-10-09T14:20:24.602Z,61.00
2022-10-09T14:22:54.306Z,60.88
2022-10-09T14:25:23.000Z,60.85
2022-10-09T14:27:51.788Z,61.06
2022-10-09T14:30:20.681Z,61.01
2022-10-09T14:32:50.723Z,60.82
2022-10-09T14:35:21.634Z,61.00
2022-10-09T14:37:52.413Z,61.18
2022-10-09T14:40:22.501Z,61.34
2022-10-09T14:42:52.738Z,61.51
2022-10-09T14:45:32.346Z,61.53
2022-10-09T14:48:01.279Z,61.34
2022-10-09T14:50:30.539Z,61.36
2022-10-09T14:52:59.221Z,61.78
2022-10-09T14:55:27.908Z,61.91
2022-10-09T14:57:57.200Z,62.02
2022-10-09T15:00:30.640Z,61.99
2022-10-09T15:02:59.852Z,62.06
2022-10-09T15:05:28.710Z,62.19
2022-10-09T15:07:57.458Z,62.14
2022-10-09T15:10:26.426Z,62.29
2022-10-09T15:12:55.163Z,62.46
2022-10-09T15:15:23.863Z,62.54
2022-10-09T15:17:52.733Z,62.83
2022-10-09T15:20:21.579Z,62.87
2022-10-09T15:22:50.291Z,63.04
2022-10-09T15:25:18.977Z,63.02
2022-10-09T15:27:51.310Z,63.26
2022-10-09T15:30:23.109Z,63.54
2022-10-09T15:32:51.872Z,63.75
2022-10-09T15:35:20.692Z,63.79
2022-10-09T15:37:52.555Z,64.13
2022-10-09T15:40:23.805Z,64.34
2022-10-09T15:42:52.890Z,64.33
2022-10-09T15:45:21.756Z,64.50
2022-10-09T15:47:52.532Z,64.66
2022-10-09T15:50:21.439Z,64.88
2022-10-09T15:52:50.465Z,65.10
2022-10-09T15:55:19.627Z,65.36
2022-10-09T15:57:48.469Z,65.63
2022-10-09T16:00:17.606Z,65.82
2022-10-09T16:02:46.728Z,66.11
2022-10-09T16:05:15.928Z,66.22
2022-10-09T16:07:45.430Z,66.38
2022-10-09T16:10:14.322Z,66.61
2022-10-09T16:12:43.114Z,66.63
2022-10-09T16:15:12.650Z,66.82
2022-10-09T16:17:41.361Z,67.05
2022-10-09T16:20:10.888Z,67.25
2022-10-09T16:22:39.783Z,67.38
2022-10-09T16:25:09.894Z,67.51
2022-10-09T16:27:38.579Z,67.52
2022-10-09T16:30:11.533Z,67.58
2022-10-09T16:32:40.437Z,67.84
2022-10-09T16:35:10.156Z,67.99
2022-10-09T16:37:39.081Z,68.12
2022-10-09T16:40:09.124Z,68.16
2022-10-09T16:42:37.819Z,68.24
2022-10-09T16:45:09.336Z,68.36
2022-10-09T16:47:39.760Z,68.32
2022-10-09T16:50:09.959Z,68.48
2022-10-09T16:52:38.993Z,68.69
2022-10-09T16:55:09.695Z,68.74
2022-10-09T16:57:38.590Z,68.82
2022-10-09T17:00:10.160Z,68.81
2022-10-09T17:02:38.903Z,68.78
2022-10-09T17:05:09.097Z,68.91
2022-10-09T17:07:37.908Z,68.88
2022-10-09T17:10:10.027Z,68.89
2022-10-09T17:12:38.940Z,69.01
2022-10-09T17:15:09.249Z,69.14
2022-10-09T17:17:38.374Z,69.12
2022-10-09T17:20:09.682Z,69.14
2022-10-09T17:22:38.527Z,69.23
2022-10-09T17:25:08.759Z,69.37
2022-10-09T17:27:37.488Z,69.44
2022-10-09T17:30:09.041Z,69.47
2022-10-09T17:32:38.028Z,69.64
2022-10-09T17:35:08.956Z,69.58
2022-10-09T17:37:37.836Z,69.65
2022-10-09T17:40:08.609Z,69.59
2022-10-09T17:42:37.385Z,69.78
2022-10-09T17:45:08.921Z,69.85
2022-10-09T17:47:38.356Z,69.91
2022-10-09T17:50:09.146Z,70.00
2022-10-09T17:52:38.446Z,70.25
2022-10-09T17:55:09.245Z,70.31
2022-10-09T17:57:38.025Z,70.41
2022-10-09T18:00:09.851Z,70.53
2022-10-09T18:02:38.642Z,70.58
2022-10-09T18:05:08.363Z,70.77
2022-10-09T18:07:37.220Z,70.77
2022-10-09T18:10:07.584Z,70.77
2022-10-09T18:12:36.545Z,70.88
2022-10-09T18:15:07.190Z,70.97
2022-10-09T18:17:36.404Z,71.21
2022-10-09T18:20:07.179Z,71.36
2022-10-09T18:22:37.686Z,71.36
2022-10-09T18:25:07.814Z,71.36
2022-10-09T18:27:36.612Z,71.50
2022-10-09T18:30:07.497Z,71.61
2022-10-09T18:32:36.413Z,71.61
2022-10-09T18:35:06.394Z,71.70
2022-10-09T18:37:35.379Z,71.76
2022-10-09T18:40:05.344Z,71.87
2022-10-09T18:42:35.186Z,72.10
2022-10-09T18:45:04.961Z,72.09
2022-10-09T18:47:35.805Z,72.28
2022-10-09T18:50:11.020Z,72.28
2022-10-09T18:52:41.648Z,72.45
2022-10-09T18:55:13.067Z,72.60
2022-10-09T18:57:42.544Z,72.58
2022-10-09T19:00:14.463Z,72.69
2022-10-09T19:02:43.470Z,72.71
2022-10-09T19:05:12.401Z,72.78
2022-10-09T19:07:41.247Z,72.92
2022-10-09T19:10:10.946Z,73.04
2022-10-09T19:12:42.133Z,73.03
2022-10-09T19:15:12.392Z,73.25
2022-10-09T19:17:41.627Z,73.28
2022-10-09T19:20:10.968Z,73.37
2022-10-09T19:22:40.125Z,73.48
2022-10-09T19:25:10.495Z,73.64
2022-10-09T19:27:39.281Z,73.63
2022-10-09T19:30:10.643Z,73.76
2022-10-09T19:32:39.303Z,73.86
2022-10-09T19:35:09.737Z,74.00
2022-10-09T19:37:38.843Z,74.02
2022-10-09T19:40:09.619Z,74.00
2022-10-09T19:42:40.675Z,74.00
2022-10-09T19:45:10.886Z,74.11
2022-10-09T19:47:40.022Z,74.22
2022-10-09T19:50:10.149Z,74.19
2022-10-09T19:52:39.474Z,74.34
2022-10-09T19:55:09.301Z,74.46
2022-10-09T19:57:38.321Z,74.54
2022-10-09T20:00:10.655Z,74.61
2022-10-09T20:02:39.608Z,74.64
2022-10-09T20:05:09.380Z,74.65
2022-10-09T20:07:38.444Z,74.69
2022-10-09T20:10:08.858Z,74.66
2022-10-09T20:12:37.818Z,74.81
2022-10-09T20:15:09.394Z,74.80
2022-10-09T20:17:38.249Z,74.90
2022-10-09T20:20:08.843Z,75.02
2022-10-09T20:22:38.083Z,75.13
2022-10-09T20:25:09.241Z,75.23
2022-10-09T20:27:38.103Z,75.21
2022-10-09T20:30:09.706Z,75.27
2022-10-09T20:32:38.544Z,75.33
2022-10-09T20:35:09.699Z,75.49
2022-10-09T20:37:38.966Z,75.53
2022-10-09T20:40:10.089Z,75.66
2022-10-09T20:42:39.064Z,75.74
2022-10-09T20:45:08.928Z,75.86
2022-10-09T20:47:37.650Z,75.97
2022-10-09T20:50:08.194Z,75.89
2022-10-09T20:52:36.856Z,76.02
2022-10-09T20:55:07.558Z,76.14
2022-10-09T20:57:36.489Z,76.21
2022-10-09T21:00:06.938Z,76.24
2022-10-09T21:02:35.759Z,76.20
2022-10-09T21:05:07.633Z,76.34
2022-10-09T21:07:36.323Z,76.34
2022-10-09T21:10:06.367Z,76.39
2022-10-09T21:12:35.080Z,76.35
2022-10-09T21:15:04.892Z,76.28
2022-10-09T21:17:33.581Z,76.42
2022-10-09T21:20:02.573Z,76.62
2022-10-09T21:22:31.517Z,76.64
2022-10-09T21:25:00.201Z,76.70
2022-10-09T21:27:28.797Z,76.78
2022-10-09T21:29:58.484Z,76.73
2022-10-09T21:32:27.358Z,76.75
2022-10-09T21:34:56.839Z,76.76
2022-10-09T21:37:25.507Z,76.75
2022-10-09T21:39:54.156Z,76.74
2022-10-09T21:42:22.816Z,76.92
2022-10-09T21:44:51.502Z,76.97
2022-10-09T21:47:20.258Z,76.90
2022-10-09T21:49:48.910Z,76.85
2022-10-09T21:52:19.282Z,76.81
2022-10-09T21:54:47.923Z,76.87
2022-10-09T21:57:16.637Z,76.79
2022-10-09T21:59:45.319Z,76.81
2022-10-09T22:02:13.922Z,76.70
2022-10-09T22:04:42.692Z,76.68
2022-10-09T22:07:11.823Z,76.53
2022-10-09T22:09:40.437Z,76.72
2022-10-09T22:12:09.200Z,76.76
2022-10-09T22:14:37.998Z,76.66
2022-10-09T22:17:06.550Z,76.62
2022-10-09T22:19:35.217Z,76.79
2022-10-09T22:22:03.918Z,76.68
2022-10-09T22:24:32.705Z,76.65
2022-10-09T22:27:01.743Z,76.73
2022-10-09T22:29:30.415Z,76.77
2022-10-09T22:31:59.173Z,76.92
2022-10-09T22:34:27.813Z,76.98
2022-10-09T22:36:56.507Z,77.00
2022-10-09T22:39:25.226Z,76.81
2022-10-09T22:41:53.824Z,76.74
2022-10-09T22:44:22.496Z,76.93
2022-10-09T22:46:52.036Z,76.94
2022-10-09T22:49:20.830Z,77.05
2022-10-09T22:51:49.670Z,77.02
2022-10-09T22:54:18.947Z,77.20
2022-10-09T22:56:47.552Z,77.19
2022-10-09T22:59:17.761Z,77.16
2022-10-09T23:01:49.499Z,77.25
2022-10-09T23:04:18.959Z,77.33
2022-10-09T23:06:50.908Z,77.43
2022-10-09T23:09:20.121Z,77.59
2022-10-09T23:11:49.001Z,77.52
2022-10-09T23:14:17.804Z,77.43
2022-10-09T23:16:46.554Z,77.47
2022-10-09T23:19:16.275Z,77.36
2022-10-09T23:21:46.239Z,77.26
2022-10-09T23:24:17.095Z,77.31
2022-10-09T23:26:46.602Z,77.50
2022-10-09T23:29:17.518Z,77.52
2022-10-09T23:31:47.999Z,77.65
2022-10-09T23:34:16.592Z,77.60
2022-10-09T23:36:45.272Z,77.79
2022-10-09T23:39:14.172Z,77.80
2022-10-09T23:41:42.934Z,77.82
2022-10-09T23:44:11.592Z,77.93
2022-10-09T23:46:41.330Z,78.11
2022-10-09T23:49:10.696Z,78.12
2022-10-09T23:51:39.590Z,78.23
2022-10-09T23:54:08.361Z,78.12
2022-10-09T23:56:37.677Z,77.92
2022-10-09T23:59:06.989Z,78.06
